Time;durP1;ratioP1;P1;durP2;ratioP2;P2;SDS_P1;SDS_P2;PMS_P1;PMS_P2;Temp;Humidity;BMP_temperature;BMP_pressure;BME280_temperature;BME280_humidity;BME280_pressure;Samples;Min_cycle;Max_cycle;Signal;HPM_P1;HPM_P2
2022/03/30 00:00:56;;;;;;;33.75;17.10;;;;;;;7.51;72.77;100989.31;5067440;28;20020;-61
2022/03/30 00:03:21;;;;;;;33.88;16.88;;;;;;;7.41;73.32;100991.25;5066662;28;20387;-62
2022/03/30 00:05:47;;;;;;;37.90;17.05;;;;;;;7.39;73.20;100993.03;5067302;28;20028;-60
2022/03/30 00:08:12;;;;;;;31.42;16.27;;;;;;;7.41;73.37;100991.25;5066524;28;20060;-61
2022/03/30 00:10:37;;;;;;;37.40;15.43;;;;;;;7.46;73.26;100992.03;5067491;28;20028;-61
2022/03/30 00:13:03;;;;;;;33.67;15.88;;;;;;;7.49;73.43;100984.09;5065102;28;20028;-62
2022/03/30 00:15:29;;;;;;;31.38;17.17;;;;;;;7.49;72.63;100991.97;5067026;28;20113;-62
2022/03/30 00:17:55;;;;;;;33.47;15.73;;;;;;;7.50;73.18;100990.22;5066630;28;20077;-60
2022/03/30 00:20:20;;;;;;;37.35;16.45;;;;;;;7.43;73.32;100989.44;5067467;28;20025;-62
2022/03/30 00:22:46;;;;;;;38.72;17.02;;;;;;;7.23;74.03;100982.84;5066262;28;20356;-61
2022/03/30 00:25:12;;;;;;;35.45;16.08;;;;;;;7.33;73.61;100981.78;5065944;28;20041;-62
2022/03/30 00:27:41;;;;;;;38.00;16.52;;;;;;;7.10;74.22;100978.69;5064099;28;20033;-61
2022/03/30 00:30:07;;;;;;;35.55;15.98;;;;;;;7.07;74.39;100988.31;5065522;28;20082;-62
2022/03/30 00:32:32;;;;;;;31.65;14.25;;;;;;;7.25;73.77;100986.28;5048380;28;20573;-61
2022/03/30 00:34:58;;;;;;;34.92;15.75;;;;;;;7.17;74.06;100983.78;5066001;28;20104;-62
2022/03/30 00:37:23;;;;;;;40.92;16.80;;;;;;;7.07;74.72;100975.22;5066299;28;20083;-61
2022/03/30 00:39:49;;;;;;;35.35;16.27;;;;;;;7.07;74.54;100977.84;5066590;28;20471;-61
2022/03/30 00:42:20;;;;;;;33.72;15.80;;;;;;;7.04;74.49;100971.78;5065615;28;20028;-60
2022/03/30 00:44:46;;;;;;;42.70;17.77;;;;;;;6.87;75.11;100979.94;5066058;28;20024;-61
2022/03/30 00:47:22;;;;;;;31.17;15.20;;;;;;;6.98;74.51;100975.38;5066125;28;20021;-61
2022/03/30 00:49:48;;;;;;;33.90;15.52;;;;;;;6.92;75.04;100978.97;5065578;28;20033;-60
2022/03/30 00:52:14;;;;;;;33.78;15.43;;;;;;;6.90;74.78;100975.53;5066341;28;20025;-62
2022/03/30 00:54:41;;;;;;;36.58;15.60;;;;;;;6.92;74.50;100967.59;5047512;28;20028;-61
2022/03/30 00:57:09;;;;;;;34.72;15.88;;;;;;;6.80;74.79;100964.31;5065449;28;20024;-61
2022/03/30 00:59:34;;;;;;;31.60;15.07;;;;;;;6.84;74.77;100967.75;5065710;28;20089;-61
2022/03/30 01:02:00;;;;;;;34.92;17.50;;;;;;;6.90;74.88;100965.03;5064140;28;20043;-60
2022/03/30 01:04:31;;;;;;;35.45;15.35;;;;;;;6.87;74.27;100964.22;5065647;28;20438;-61
2022/03/30 01:06:57;;;;;;;36.78;15.95;;;;;;;6.52;75.46;100958.63;5046677;28;20040;-62
2022/03/30 01:09:22;;;;;;;31.48;16.38;;;;;;;6.40;76.16;100943.97;5065949;28;20021;-61
2022/03/30 01:11:47;;;;;;;38.92;15.82;;;;;;;6.44;76.28;100945.66;5064445;28;20458;-61
2022/03/30 01:14:13;;;;;;;37.10;15.90;;;;;;;6.41;76.26;100943.97;5065477;28;20037;-60
2022/03/30 01:16:41;;;;;;;35.40;15.68;;;;;;;6.43;76.00;100943.94;5065364;28;20025;-60
2022/03/30 01:19:08;;;;;;;34.90;13.98;;;;;;;6.50;75.95;100935.09;5065498;28;20533;-60
2022/03/30 01:21:35;;;;;;;32.47;15.82;;;;;;;6.48;75.85;100946.50;5047583;28;20029;-61
2022/03/30 01:24:00;;;;;;;26.98;13.95;;;;;;;6.42;75.69;100931.75;5065707;28;20025;-62
2022/03/30 01:26:26;;;;;;;34.08;15.40;;;;;;;6.42;75.91;100939.59;5063258;28;20036;-62
2022/03/30 01:28:52;;;;;;;35.95;16.15;;;;;;;6.34;76.23;100930.97;5064981;28;20485;-60
2022/03/30 01:34:01;;;;;;;33.22;15.43;;;;;;;6.13;76.88;100933.00;5064931;28;20382;-62
2022/03/30 01:36:26;;;;;;;33.33;14.60;;;;;;;6.18;76.95;100944.28;5064424;28;20036;-60
2022/03/30 01:38:52;;;;;;;35.42;14.55;;;;;;;6.17;76.60;100935.56;5065531;28;20063;-60
2022/03/30 01:41:17;;;;;;;44.97;17.27;;;;;;;6.17;77.05;100937.34;5063966;28;20017;-61
2022/03/30 01:43:42;;;;;;;39.65;17.00;;;;;;;5.98;77.42;100932.31;5065247;28;20637;-61
2022/03/30 01:46:08;;;;;;;32.70;15.25;;;;;;;6.12;77.01;100936.53;5063698;28;20054;-61
2022/03/30 01:48:33;;;;;;;36.80;15.10;;;;;;;6.12;77.10;100933.91;5065562;28;20032;-61
2022/03/30 01:50:59;;;;;;;36.38;16.10;;;;;;;5.99;77.47;100934.03;5064303;28;20111;-62
2022/03/30 01:53:25;;;;;;;36.53;16.55;;;;;;;6.01;77.75;100936.63;5064111;28;20056;-62
2022/03/30 01:55:51;;;;;;;41.22;16.00;;;;;;;6.06;77.16;100933.09;5063753;28;20117;-62
2022/03/30 01:58:17;;;;;;;33.03;14.38;;;;;;;6.16;76.63;100927.75;5064402;28;20028;-61
2022/03/30 02:00:43;;;;;;;35.95;14.82;;;;;;;6.12;77.30;100920.84;5064805;28;20437;-60
2022/03/30 02:03:08;;;;;;;38.97;15.50;;;;;;;6.20;76.83;100921.56;5064277;28;20094;-61
2022/03/30 02:05:34;;;;;;;34.17;15.95;;;;;;;6.21;76.77;100918.09;5063860;28;20047;-60
2022/03/30 02:07:59;;;;;;;32.85;15.32;;;;;;;6.16;77.17;100904.19;5064799;28;20459;-60
2022/03/30 02:10:24;;;;;;;33.15;14.75;;;;;;;6.17;77.03;100908.56;5064460;28;20037;-61
2022/03/30 02:12:50;;;;;;;32.80;15.15;;;;;;;6.26;76.69;100907.56;5063187;28;20037;-60
2022/03/30 02:15:16;;;;;;;31.58;15.48;;;;;;;6.18;76.76;100898.03;5064729;28;20058;-61
2022/03/30 02:17:42;;;;;;;47.28;16.13;;;;;;;6.07;76.85;100902.56;5064097;28;20479;-60
2022/03/30 02:20:08;;;;;;;35.70;16.23;;;;;;;5.99;77.34;100909.66;5067052;28;20086;-59
2022/03/30 02:22:34;;;;;;;38.95;14.93;;;;;;;6.13;76.76;100899.00;5068261;28;20039;-59
2022/03/30 02:24:59;;;;;;;34.05;14.95;;;;;;;6.04;76.87;100898.25;5067707;28;20012;-60
2022/03/30 02:27:24;;;;;;;43.67;16.83;;;;;;;5.90;77.18;100902.78;5067859;28;20037;-60
2022/03/30 02:29:52;;;;;;;35.42;14.75;;;;;;;5.80;77.60;100895.06;5066329;28;20143;-60
2022/03/30 02:32:18;;;;;;;35.70;15.65;;;;;;;5.75;77.65;100889.00;5067535;28;20055;-60
2022/03/30 02:34:43;;;;;;;31.02;15.30;;;;;;;5.68;77.71;100889.97;5067681;28;20024;-62
2022/03/30 02:37:09;;;;;;;39.38;16.42;;;;;;;5.68;77.66;100884.75;5048861;28;20032;-60
2022/03/30 02:39:35;;;;;;;39.05;15.73;;;;;;;5.60;77.93;100878.75;5068328;28;20108;-63
2022/03/30 02:42:01;;;;;;;46.47;16.00;;;;;;;5.60;77.85;100876.16;5048756;28;20111;-62
2022/03/30 02:44:26;;;;;;;33.38;16.00;;;;;;;5.56;77.80;100873.56;5068939;28;20028;-61
2022/03/30 02:46:52;;;;;;;44.17;16.17;;;;;;;5.31;78.90;100870.38;5067609;28;20021;-61
2022/03/30 02:49:17;;;;;;;33.95;15.95;;;;;;;5.31;79.00;100878.22;5068881;28;20030;-60
2022/03/30 02:51:42;;;;;;;38.30;16.50;;;;;;;5.30;79.21;100873.88;5049260;28;20036;-62
2022/03/30 02:54:08;;;;;;;34.15;16.05;;;;;;;5.36;78.88;100865.13;5067851;28;20033;-60
2022/03/30 02:56:34;;;;;;;41.53;15.80;;;;;;;5.38;78.64;100863.31;5066610;28;20020;-60
2022/03/30 02:58:59;;;;;;;45.67;15.85;;;;;;;5.38;78.68;100858.09;5067497;28;20146;-61
2022/03/30 03:01:24;;;;;;;42.65;16.85;;;;;;;5.40;78.63;100861.56;5066455;28;20107;-61
2022/03/30 03:03:49;;;;;;;40.53;16.30;;;;;;;5.33;78.65;100858.19;5067473;28;20025;-61
2022/03/30 03:06:15;;;;;;;49.33;18.15;;;;;;;5.21;79.04;100845.25;5067321;28;20048;-60
2022/03/30 03:08:40;;;;;;;38.30;16.95;;;;;;;5.21;79.30;100848.72;5049079;28;20032;-62
2022/03/30 03:11:06;;;;;;;35.35;16.25;;;;;;;5.21;79.21;100846.09;5067714;28;20486;-60
2022/03/30 03:13:31;;;;;;;34.35;15.82;;;;;;;5.18;79.05;100860.06;5067238;28;20133;-62
2022/03/30 03:15:57;;;;;;;35.53;15.60;;;;;;;5.14;79.10;100844.44;5067484;28;20414;-61
2022/03/30 03:18:22;;;;;;;36.10;14.98;;;;;;;5.08;78.94;100840.16;5066621;28;20028;-61
2022/03/30 03:20:48;;;;;;;43.42;17.67;;;;;;;5.06;79.01;100847.16;5067621;28;20584;-62
2022/03/30 03:23:14;;;;;;;36.20;17.13;;;;;;;5.01;79.48;100844.59;5066601;28;20035;-60
2022/03/30 03:25:41;;;;;;;43.28;17.50;;;;;;;5.02;79.44;100835.88;5067058;28;20027;-60
2022/03/30 03:28:08;;;;;;;49.15;18.90;;;;;;;4.94;79.71;100827.25;5066339;28;20070;-60
2022/03/30 03:30:33;;;;;;;46.22;15.68;;;;;;;4.94;79.83;100840.31;5066391;28;20028;-63
2022/03/30 03:32:59;;;;;;;41.08;16.77;;;;;;;4.97;79.62;100848.09;5066371;28;20039;-61
2022/03/30 03:35:25;;;;;;;43.90;18.50;;;;;;;4.86;80.46;100844.72;5067514;28;20474;-61
2022/03/30 03:37:51;;;;;;;45.45;17.63;;;;;;;4.94;80.08;100850.75;5066048;28;20039;-60
2022/03/30 03:40:17;;;;;;;42.10;18.88;;;;;;;4.96;80.09;100843.75;5047843;28;20031;-61
2022/03/30 03:42:43;;;;;;;37.90;17.05;;;;;;;4.97;80.01;100842.03;5050970;28;20037;-61
2022/03/30 03:45:09;;;;;;;49.60;17.73;;;;;;;4.92;80.00;100844.69;5066452;28;20024;-62
2022/03/30 03:47:35;;;;;;;47.63;18.27;;;;;;;5.00;79.96;100852.44;5048927;28;20166;-63
2022/03/30 03:50:00;;;;;;;42.85;18.48;;;;;;;5.06;79.75;100858.44;5062949;28;20017;-61
2022/03/30 03:52:26;;;;;;;47.92;19.67;;;;;;;5.03;79.63;100855.03;5066973;28;20474;-60
2022/03/30 03:54:51;;;;;;;47.35;18.38;;;;;;;5.12;79.31;100852.28;5067159;28;20104;-61
2022/03/30 03:57:17;;;;;;;45.28;17.48;;;;;;;5.08;79.40;100847.16;5066078;28;20016;-59
2022/03/30 03:59:42;;;;;;;40.17;18.67;;;;;;;5.09;79.30;100846.25;5066780;28;20099;-61
2022/03/30 04:02:07;;;;;;;36.63;15.75;;;;;;;5.09;79.37;100839.25;5066926;28;20031;-59
2022/03/30 04:04:34;;;;;;;46.83;18.77;;;;;;;5.07;79.53;100846.28;5067184;28;20211;-64
2022/03/30 04:06:59;;;;;;;51.78;18.27;;;;;;;5.08;79.35;100839.31;5067073;28;20024;-61
2022/03/30 04:09:24;;;;;;;50.22;17.95;;;;;;;5.10;79.46;100834.91;5066772;28;20025;-62
2022/03/30 04:11:50;;;;;;;38.03;16.85;;;;;;;5.09;79.16;100825.34;5047883;28;20103;-62
2022/03/30 04:14:19;;;;;;;46.15;17.10;;;;;;;5.08;79.14;100818.41;5066518;28;20028;-60
2022/03/30 04:16:45;;;;;;;35.10;14.85;;;;;;;5.05;78.87;100814.94;5067123;28;20028;-61
2022/03/30 04:19:10;;;;;;;35.47;16.52;;;;;;;5.09;78.61;100810.53;5066314;28;20391;-60
2022/03/30 04:21:35;;;;;;;33.33;16.85;;;;;;;5.03;78.71;100803.63;5067216;28;20094;-62
2022/03/30 04:24:01;;;;;;;38.55;17.08;;;;;;;5.01;78.90;100808.03;5048768;28;20035;-61
2022/03/30 04:26:26;;;;;;;36.28;16.80;;;;;;;4.93;79.08;100802.88;5048172;28;20032;-62
2022/03/30 04:28:51;;;;;;;38.35;16.50;;;;;;;4.87;78.98;100804.69;5065506;28;20395;-60
2022/03/30 04:31:17;;;;;;;37.28;15.48;;;;;;;4.88;79.12;100807.28;5066552;28;20505;-62
2022/03/30 04:33:42;;;;;;;40.17;16.02;;;;;;;4.82;79.39;100811.72;5066906;28;20024;-60
2022/03/30 04:36:07;;;;;;;41.90;18.63;;;;;;;4.83;79.89;100818.66;5065987;28;20086;-61
2022/03/30 04:38:33;;;;;;;51.78;17.90;;;;;;;4.84;80.04;100817.78;5066985;28;20028;-62
2022/03/30 04:40:59;;;;;;;50.17;19.63;;;;;;;4.79;80.33;100818.69;5065638;28;20020;-64
2022/03/30 04:43:24;;;;;;;47.97;17.67;;;;;;;4.77;80.44;100822.19;5065179;28;20108;-60
2022/03/30 04:45:50;;;;;;;41.13;18.73;;;;;;;4.74;80.22;100817.88;5066405;28;20033;-62
2022/03/30 04:48:15;;;;;;;50.13;19.77;;;;;;;4.74;80.41;100817.00;5066158;28;20043;-61
2022/03/30 04:50:40;;;;;;;50.78;18.23;;;;;;;4.76;80.30;100821.31;5066153;28;20430;-62
2022/03/30 04:53:06;;;;;;;48.28;18.00;;;;;;;4.72;80.56;100817.03;5066283;28;20063;-61
2022/03/30 04:55:32;;;;;;;44.00;18.23;;;;;;;4.68;81.02;100817.94;5065768;28;20025;-61
2022/03/30 04:57:58;;;;;;;56.47;22.10;;;;;;;4.63;81.25;100817.97;5065762;28;20027;-62
2022/03/30 05:00:23;;;;;;;47.35;19.70;;;;;;;4.60;81.25;100812.78;5063822;28;20017;-62
2022/03/30 05:02:49;;;;;;;54.47;18.13;;;;;;;4.62;81.38;100812.78;5065341;28;20395;-62
2022/03/30 05:05:14;;;;;;;55.30;20.20;;;;;;;4.51;81.86;100805.91;5064201;28;20359;-60
2022/03/30 05:07:40;;;;;;;45.45;20.08;;;;;;;4.50;82.08;100803.31;5065142;28;20116;-60
2022/03/30 05:10:10;;;;;;;47.92;20.20;;;;;;;4.52;81.99;100801.56;5048721;28;20374;-61
2022/03/30 05:12:35;;;;;;;48.70;20.08;;;;;;;4.50;81.78;100801.56;5064224;28;20107;-62
2022/03/30 05:15:00;;;;;;;52.92;20.23;;;;;;;4.49;82.42;100805.03;5064730;28;20048;-60
2022/03/30 05:17:26;;;;;;;45.00;19.10;;;;;;;4.43;82.28;100792.09;5064310;28;20043;-62
2022/03/30 05:19:51;;;;;;;61.33;20.77;;;;;;;4.43;82.13;100795.53;5063947;28;20024;-62
2022/03/30 05:22:17;;;;;;;57.42;21.30;;;;;;;4.43;82.23;100794.69;5046923;28;20052;-61
2022/03/30 05:24:43;;;;;;;50.90;21.48;;;;;;;4.42;82.29;100798.16;5061175;28;20113;-60
2022/03/30 05:27:09;;;;;;;46.72;18.98;;;;;;;4.48;81.71;100792.88;5057184;28;20105;-62
2022/03/30 05:29:35;;;;;;;46.35;19.45;;;;;;;4.49;82.12;100792.00;5041573;28;20024;-61
2022/03/30 05:32:00;;;;;;;53.33;19.85;;;;;;;4.60;81.22;100789.28;5065339;28;20021;-61
2022/03/30 05:34:26;;;;;;;44.63;19.33;;;;;;;4.53;81.57;100791.13;5064852;28;20021;-61
2022/03/30 05:36:51;;;;;;;47.72;18.23;;;;;;;4.62;81.15;100794.50;5045222;28;20016;-61
2022/03/30 05:39:16;;;;;;;45.97;20.80;;;;;;;4.54;81.65;100795.44;5062123;28;20021;-63
2022/03/30 05:41:42;;;;;;;46.17;20.33;;;;;;;4.51;81.79;100786.75;5057843;28;20025;-61
2022/03/30 05:44:08;;;;;;;52.33;19.17;;;;;;;4.54;81.96;100792.84;5052586;28;20359;-62
2022/03/30 05:46:35;;;;;;;54.88;20.33;;;;;;;4.58;81.73;100787.59;5058937;28;20115;-62
2022/03/30 05:49:00;;;;;;;56.58;20.52;;;;;;;4.55;81.79;100785.88;5054839;28;20107;-62
2022/03/30 05:51:25;;;;;;;51.30;21.15;;;;;;;4.57;81.85;100783.25;5055614;28;20323;-64
2022/03/30 05:53:51;;;;;;;46.55;21.05;;;;;;;4.61;81.69;100788.41;5055941;28;20025;-60
2022/03/30 05:56:16;;;;;;;45.55;19.42;;;;;;;4.62;81.88;100779.72;5044366;28;20021;-61
2022/03/30 05:58:41;;;;;;;51.45;19.92;;;;;;;4.71;81.49;100781.38;5056986;28;20491;-62
2022/03/30 06:01:07;;;;;;;54.00;20.90;;;;;;;4.83;81.54;100782.97;5044615;28;20510;-60
2022/03/30 06:03:37;;;;;;;53.70;21.48;;;;;;;4.84;81.48;100781.25;5052656;28;20049;-60
2022/03/30 06:06:05;;;;;;;53.42;20.77;;;;;;;4.89;81.46;100788.13;5057584;28;20028;-61
2022/03/30 06:08:32;;;;;;;55.08;20.63;;;;;;;4.96;81.30;100785.47;5056063;28;20759;-61
2022/03/30 06:10:57;;;;;;;56.53;21.20;;;;;;;5.03;80.84;100787.97;5063742;28;20429;-60
2022/03/30 06:13:22;;;;;;;55.47;21.42;;;;;;;5.12;80.75;100792.22;5064514;28;20020;-60
2022/03/30 06:15:48;;;;;;;56.03;21.27;;;;;;;5.15;80.54;100802.63;5064207;28;20127;-62
2022/03/30 06:18:14;;;;;;;47.28;19.63;;;;;;;5.20;80.89;100807.81;5049969;28;20115;-60
2022/03/30 06:20:40;;;;;;;50.53;20.63;;;;;;;5.12;80.39;100799.19;5044732;28;20020;-62
2022/03/30 06:23:05;;;;;;;45.45;19.90;;;;;;;5.19;80.32;100806.09;5055415;28;20437;-63
2022/03/30 06:25:31;;;;;;;53.78;21.63;;;;;;;5.22;80.30;100802.56;5054430;28;20015;-58
2022/03/30 06:27:58;;;;;;;46.47;19.20;;;;;;;5.30;79.97;100798.97;5045158;28;20033;-58
2022/03/30 06:30:24;;;;;;;44.53;19.30;;;;;;;5.38;79.36;100795.38;5042767;28;20056;-57
2022/03/30 06:32:51;;;;;;;48.92;21.25;;;;;;;5.45;79.37;100802.28;5051474;28;20005;-54
2022/03/30 06:35:20;;;;;;;55.55;18.95;;;;;;;5.49;79.20;100796.13;5065075;28;20075;-58
2022/03/30 06:37:46;;;;;;;43.75;17.20;;;;;;;5.74;78.76;100798.38;5064606;28;20016;-58
2022/03/30 06:40:14;;;;;;;46.45;19.73;;;;;;;5.76;78.48;100796.63;5062898;28;20025;-61
2022/03/30 06:42:39;;;;;;;37.20;18.10;;;;;;;5.86;78.15;100801.69;5064608;28;20032;-60
2022/03/30 06:45:07;;;;;;;47.65;18.02;;;;;;;6.02;77.83;100792.75;5058554;28;20458;-61
2022/03/30 06:47:33;;;;;;;36.83;18.90;;;;;;;6.10;77.70;100797.00;5052318;28;20471;-61
2022/03/30 06:49:58;;;;;;;48.88;19.98;;;;;;;6.18;77.33;100803.84;5059931;28;20019;-62
2022/03/30 06:52:24;;;;;;;49.78;19.83;;;;;;;6.33;76.86;100794.03;5063306;28;20039;-58
2022/03/30 06:54:49;;;;;;;41.42;18.65;;;;;;;6.45;76.46;100795.59;5055537;28;20461;-57
2022/03/30 06:57:14;;;;;;;42.17;19.90;;;;;;;6.56;75.93;100795.38;5058775;28;20043;-55
2022/03/30 06:59:40;;;;;;;45.03;20.27;;;;;;;6.66;75.78;100788.22;5062465;28;20028;-56
2022/03/30 07:02:06;;;;;;;43.85;17.60;;;;;;;6.82;75.61;100794.03;5064184;28;20024;-57
2022/03/30 07:04:31;;;;;;;45.22;16.67;;;;;;;7.01;74.96;100788.47;5057603;28;20108;-60
2022/03/30 07:12:26;;;;;;;37.80;16.58;;;;;;;7.25;73.24;100784.47;5057687;28;20040;-61
2022/03/30 07:14:51;;;;;;;33.47;16.70;;;;;;;6.95;73.53;100784.19;5058264;28;20103;-61
2022/03/30 07:17:17;;;;;;;35.97;15.52;;;;;;;7.02;73.57;100787.56;5062952;28;20099;-62
2022/03/30 07:19:43;;;;;;;39.40;16.88;;;;;;;7.21;73.13;100780.19;5066562;28;20012;-62
2022/03/30 07:22:11;;;;;;;33.67;15.65;;;;;;;7.42;72.94;100767.50;5065921;28;20024;-59
2022/03/30 07:24:37;;;;;;;44.03;18.40;;;;;;;7.40;73.27;100772.78;5064803;28;20095;-58
2022/03/30 07:27:02;;;;;;;39.25;16.88;;;;;;;7.33;73.38;100779.94;5065894;28;20111;-62
2022/03/30 07:29:28;;;;;;;39.88;18.60;;;;;;;7.51;73.10;100774.31;5067827;28;20047;-60
2022/03/30 07:31:53;;;;;;;37.63;16.88;;;;;;;7.65;72.36;100777.47;5067276;28;20100;-63
2022/03/30 07:34:18;;;;;;;44.40;18.10;;;;;;;7.44;73.21;100768.34;5063142;28;20111;-60
2022/03/30 07:36:44;;;;;;;44.00;20.05;;;;;;;7.37;73.97;100772.00;5057613;28;20215;-59
2022/03/30 07:39:09;;;;;;;48.40;18.52;;;;;;;7.46;73.91;100777.03;5054737;28;20040;-60
2022/03/30 07:41:35;;;;;;;42.65;18.60;;;;;;;7.71;73.23;100769.47;5058731;28;20111;-60
2022/03/30 07:44:00;;;;;;;38.90;16.27;;;;;;;7.90;72.97;100762.94;5061548;28;20108;-59
2022/03/30 07:46:25;;;;;;;39.15;18.02;;;;;;;7.97;72.83;100764.50;5061279;28;20036;-60
2022/03/30 07:48:51;;;;;;;33.72;15.60;;;;;;;8.11;72.08;100772.06;5057361;28;20041;-60
2022/03/30 07:51:16;;;;;;;38.45;16.42;;;;;;;8.01;72.69;100760.91;5052234;28;20407;-58
2022/03/30 07:53:41;;;;;;;38.10;16.80;;;;;;;8.26;72.25;100765.56;5058871;28;20487;-59
2022/03/30 07:56:07;;;;;;;35.92;15.07;;;;;;;8.36;71.91;100757.47;5063299;28;20032;-57
2022/03/30 07:58:32;;;;;;;34.40;14.73;;;;;;;8.41;71.58;100768.69;5043029;28;20040;-60
2022/03/30 08:00:57;;;;;;;27.67;14.43;;;;;;;8.55;71.81;100766.59;5044320;28;20131;-59
2022/03/30 08:03:23;;;;;;;32.97;13.75;;;;;;;8.93;70.98;100766.44;5046197;28;20021;-61
2022/03/30 08:05:48;;;;;;;20.80;10.82;;;;;;;8.72;71.74;100775.78;5033652;28;20064;-59
2022/03/30 08:08:13;;;;;;;25.77;12.02;;;;;;;8.89;71.79;100763.94;5034882;28;20135;-57
2022/03/30 08:10:39;;;;;;;28.50;12.32;;;;;;;8.97;71.58;100760.19;5045877;28;20040;-57
2022/03/30 08:13:05;;;;;;;28.92;11.73;;;;;;;9.18;71.15;100757.84;5045352;28;20013;-59
2022/03/30 08:15:31;;;;;;;26.63;11.65;;;;;;;9.48;70.91;100762.22;5045779;28;20044;-59
2022/03/30 08:17:56;;;;;;;20.80;11.18;;;;;;;9.39;70.58;100749.38;5044833;28;20415;-58
2022/03/30 08:23:07;;;;;;;22.42;10.32;;;;;;;8.98;71.99;100766.31;5046204;28;20136;-57
2022/03/30 08:25:33;;;;;;;24.95;11.10;;;;;;;9.24;70.97;100762.06;5046303;28;20359;-59
2022/03/30 08:27:59;;;;;;;21.60;10.77;;;;;;;9.19;71.54;100761.34;5044495;28;20040;-59
2022/03/30 08:30:24;;;;;;;19.02;9.32;;;;;;;9.14;71.50;100768.50;5045187;28;20028;-60
2022/03/30 08:32:49;;;;;;;16.67;10.23;;;;;;;9.42;70.96;100758.03;5045972;28;20021;-59
2022/03/30 08:35:15;;;;;;;15.60;7.68;;;;;;;9.51;70.72;100762.13;5045139;28;20043;-58
2022/03/30 08:37:40;;;;;;;13.38;7.43;;;;;;;9.60;70.89;100761.84;5044722;28;20028;-58
2022/03/30 08:40:06;;;;;;;13.40;7.75;;;;;;;10.16;69.64;100759.22;5046276;28;20073;-60
2022/03/30 08:42:32;;;;;;;18.55;7.93;;;;;;;10.29;67.26;100754.38;5046723;28;20037;-61
2022/03/30 08:44:59;;;;;;;17.25;8.05;;;;;;;10.64;66.39;100754.13;5045216;28;20501;-59
2022/03/30 08:47:25;;;;;;;13.60;7.10;;;;;;;10.49;66.27;100758.16;5045776;28;20032;-59
2022/03/30 08:49:51;;;;;;;15.25;7.45;;;;;;;10.14;66.49;100747.03;5045225;28;20016;-61
2022/03/30 08:52:17;;;;;;;14.07;7.03;;;;;;;10.34;65.78;100751.59;5044634;28;20072;-59
2022/03/30 08:54:44;;;;;;;17.88;7.63;;;;;;;10.13;66.22;100742.66;5045264;28;20025;-59
2022/03/30 08:57:10;;;;;;;15.43;8.38;;;;;;;10.05;66.74;100745.56;5044706;28;20775;-61
2022/03/30 08:59:35;;;;;;;15.82;7.70;;;;;;;10.27;66.56;100748.34;5041873;28;20032;-59
2022/03/30 09:02:01;;;;;;;12.95;7.93;;;;;;;10.70;64.53;100748.63;5043558;28;20054;-64
2022/03/30 09:04:26;;;;;;;16.08;7.63;;;;;;;10.94;63.94;100742.50;5044886;28;20060;-58
2022/03/30 09:06:53;;;;;;;13.95;6.85;;;;;;;11.27;62.03;100746.56;5044696;28;20612;-59
2022/03/30 09:09:32;;;;;;;14.50;6.97;;;;;;;11.02;61.90;100748.38;5044398;28;20078;-61
2022/03/30 09:11:59;;;;;;;11.85;6.85;;;;;;;11.23;61.14;100737.94;5044365;28;20028;-59
2022/03/30 09:14:30;;;;;;;16.25;7.45;;;;;;;11.23;61.00;100744.03;5026108;28;21365;-60
2022/03/30 09:17:06;;;;;;;17.55;8.02;;;;;;;11.23;60.65;100740.56;5044141;28;20025;-58
2022/03/30 09:19:40;;;;;;;19.17;8.00;;;;;;;10.96;61.96;100744.16;5026979;28;20031;-60
2022/03/30 09:22:07;;;;;;;17.67;7.95;;;;;;;11.00;62.63;100744.91;5045255;28;20453;-59
2022/03/30 09:24:35;;;;;;;20.60;8.27;;;;;;;11.05;62.47;100744.75;5042106;28;20384;-56
2022/03/30 09:27:01;;;;;;;12.68;8.02;;;;;;;11.29;60.51;100737.66;5044724;28;20107;-58
2022/03/30 09:29:29;;;;;;;14.80;7.68;;;;;;;11.48;60.53;100735.19;5042392;28;20039;-57
2022/03/30 09:31:55;;;;;;;13.18;7.15;;;;;;;11.47;60.07;100740.53;5041103;28;20486;-58
2022/03/30 09:34:20;;;;;;;10.88;6.53;;;;;;;11.61;59.15;100738.19;5044358;28;20031;-59
2022/03/30 09:36:50;;;;;;;18.92;7.32;;;;;;;11.57;59.59;100728.69;5032277;28;20021;-58
2022/03/30 09:39:27;;;;;;;;;;;;;;;11.45;59.94;100723.88;5044873;28;20035;-61
2022/03/30 09:41:54;;;;;;;18.80;7.90;;;;;;;11.53;60.34;100732.34;5043480;28;19926;-58
2022/03/30 09:44:20;;;;;;;14.25;7.70;;;;;;;11.77;59.11;100718.25;5044631;28;20020;-59
2022/03/30 09:47:05;;;;;;;13.77;7.57;;;;;;;12.16;56.89;100728.06;5043437;28;20635;-59
2022/03/30 09:49:37;;;;;;;15.93;7.40;;;;;;;12.19;56.53;100724.47;5007375;28;20039;-59
2022/03/30 09:52:10;;;;;;;14.70;7.60;;;;;;;11.86;58.04;100713.44;5033368;28;20028;-57
2022/03/30 09:54:41;;;;;;;18.50;8.48;;;;;;;11.73;58.45;100721.00;5044143;28;20366;-60
2022/03/30 09:57:29;;;;;;;13.13;8.25;;;;;;;11.96;56.98;100715.69;5044570;28;20253;-59
2022/03/30 10:00:12;;;;;;;14.50;8.25;;;;;;;11.85;57.56;100718.78;5043970;28;20336;-59
2022/03/30 10:02:41;;;;;;;16.85;7.40;;;;;;;11.59;57.87;100713.63;5038430;28;20036;-60
2022/03/30 10:05:09;;;;;;;16.35;7.88;;;;;;;11.54;57.52;100712.97;5044276;28;20067;-60
2022/03/30 10:07:35;;;;;;;16.48;7.43;;;;;;;11.77;58.16;100705.88;5065137;28;20036;-57
2022/03/30 10:10:01;;;;;;;17.95;7.20;;;;;;;12.33;55.74;100711.53;5045682;28;20529;-58
2022/03/30 10:12:27;;;;;;;13.02;6.97;;;;;;;12.51;55.53;100714.28;5063443;28;20043;-58
2022/03/30 10:14:54;;;;;;;11.82;7.55;;;;;;;12.25;55.24;100705.69;5063280;28;20564;-58
2022/03/30 10:17:20;;;;;;;18.17;8.90;;;;;;;11.79;56.69;100708.47;5062011;28;20032;-58
2022/03/30 10:19:46;;;;;;;12.05;7.85;;;;;;;12.20;56.65;100707.69;5064509;28;20055;-58
2022/03/30 10:22:30;;;;;;;16.55;8.85;;;;;;;11.96;56.34;100707.78;5063295;28;20424;-60
2022/03/30 10:25:26;;;;;;;15.20;8.13;;;;;;;11.93;55.63;100707.91;5044545;28;20562;-65
2022/03/30 10:27:54;;;;;;;13.57;7.22;;;;;;;12.24;55.06;100704.84;5042105;28;20513;-63
2022/03/30 10:30:25;;;;;;;15.27;7.25;;;;;;;12.64;54.60;100715.44;5038111;28;20020;-59
2022/03/30 10:32:57;;;;;;;16.95;7.40;;;;;;;13.08;54.38;100697.63;5054093;28;20025;-61
2022/03/30 10:35:48;;;;;;;12.15;7.80;;;;;;;13.28;53.36;100695.84;5056847;28;20057;-61
2022/03/30 10:38:15;;;;;;;13.20;7.45;;;;;;;13.34;52.19;100699.97;5037969;28;20020;-61
2022/03/30 10:40:41;;;;;;;14.77;7.78;;;;;;;12.95;53.79;100697.34;5056461;28;20044;-60
2022/03/30 10:43:09;;;;;;;11.07;6.85;;;;;;;12.98;53.36;100691.06;5059144;28;20031;-62
2022/03/30 10:45:48;;;;;;;14.02;7.35;;;;;;;13.34;52.68;100699.97;5057413;28;20047;-62
2022/03/30 10:48:24;;;;;;;12.63;6.53;;;;;;;13.17;52.59;100695.47;5055956;28;20039;-62
2022/03/30 10:50:59;;;;;;;11.27;6.32;;;;;;;13.01;52.77;100696.19;5057987;28;20510;-60
2022/03/30 10:53:34;;;;;;;11.80;6.03;;;;;;;13.21;52.29;100702.31;5060111;28;20486;-59
2022/03/30 10:56:05;;;;;;;11.05;5.97;;;;;;;12.95;52.81;100688.53;5057046;28;20032;-57
2022/03/30 10:58:30;;;;;;;14.75;6.28;;;;;;;13.02;53.85;100688.19;5060065;28;20021;-60
2022/03/30 11:01:12;;;;;;;9.52;6.00;;;;;;;12.88;53.14;100688.81;5058271;28;20040;-60
2022/03/30 11:04:02;;;;;;;10.57;5.95;;;;;;;12.98;52.70;100677.81;5056524;28;21691;-61
2022/03/30 11:06:28;;;;;;;8.98;6.45;;;;;;;13.52;51.86;100677.09;5058060;28;20455;-61
2022/03/30 11:08:55;;;;;;;9.80;5.88;;;;;;;13.87;51.33;100668.28;5045935;28;20173;-59
2022/03/30 11:11:35;;;;;;;10.30;6.13;;;;;;;13.94;52.10;100653.78;5052721;28;20131;-62
2022/03/30 11:14:29;;;;;;;8.32;6.07;;;;;;;13.85;49.66;100652.47;5057337;28;20063;-60
2022/03/30 11:17:00;;;;;;;10.75;5.97;;;;;;;13.95;48.46;100642.28;5057560;28;20083;-61
2022/03/30 11:19:30;;;;;;;13.50;6.53;;;;;;;13.99;48.52;100645.63;5055663;28;20037;-59
2022/03/30 11:22:09;;;;;;;13.68;6.68;;;;;;;13.70;49.60;100637.38;5059182;28;20380;-60
2022/03/30 11:24:34;;;;;;;18.30;6.47;;;;;;;14.25;48.39;100633.69;5057477;28;20320;-57
2022/03/30 11:26:59;;;;;;;9.20;6.43;;;;;;;14.21;48.73;100634.75;5057911;28;20464;-60